Terminal Aerodrome Forecast
Issued by NWS

Home | Current Version | Previous Version | Graphics & Text | Print | Product List | Glossary On
Versions: 1 2 3 4 5 6 7 8 9 10 11 12 13 14
000
FTUS43 KICT 261700
TAFHUT
TAF
KHUT 261732Z 2618/2718 22014G20KT P6SM SCT130
     FM270000 19008KT P6SM SCT100
     FM270400 01009KT P6SM VCTS BKN100CB
     FM271400 02013KT P6SM FEW040 BKN120=

USA.gov is the U.S. government's official web portal to all federal, state and local government web resources and services.